Kilbirnie, United Kingdom
Current Conditions -  °F | °C
As of 9:20 AM on Monday 20 Oct 2014 (Local Time) from EGPF Reporting Station
Light Rain Light Rain  
Wind Chill: 11°   Ceiling: 2200
Heat Index: 11°   Visibility: 2.1mi
Dew Point:   Wind: 10mph
Humidity: 88%   Direction: 240°WSW
Pressure: 29.74"   Gusts: NA
Location:  55.75°N, 4.69°W
Report Text: EGPF 200820Z AUTO 24009KT 3500 -RA SCT012/// BKN022/// //////CB 11/09 Q1007 REDZ
Loading
Personal Weather Stations






























Interactive Weather Map
Tropical Storm Tracking
New forecast layout! Learn more

10-Day Weather Forecast

Advertisements
Track Severe Weather on mobile